Flint, MI (48552)

4:06 AM EST on March 03, 2015 (GMT -0500)
KC8EEL - Flint | Change Station
CLOSE
Current Station
Personal Weather Station
Location: Flint, MI
Elevation: 771 ft
Nearby Weather Stations
Active Advisory: Winter Weather Advisory

Elev 771 ft 42.99 °N, 83.69 °W | Updated 9 minutes ago

Overcast
Overcast
23.2 °F
Feels Like 23 °F
N
1.6
Wind Variable Wind from SSE

Today
High -- | Low -- °F
--% Chance of Precip.
Yesterday
High -- | Low -- °F
Precip. -- in
7:07 AM 6:26 PM
Waxing Gibbous, 95% visible
Pressure 30.25 in
Visibility 10.0 miles
Clouds Overcast 6500 ft
Windchill 23 °F
Dew Point 14 °F
Humidity 67%
Rainfall 0.00 in
Snow Depth Not available.
UV 0 out of 12
Pollen .40 out of 12
Air Quality Not available.
Flu Activity Not available.
METAR KFNT 030853Z AUTO 18005KT 10SM OVC065 M04/M10 A3025

More Conditions Fewer Conditions

Pressure 30.25 in
Visibility 10.0 miles
Clouds Overcast 6500 ft
Windchill 23 °F
Dew Point 14 °F
Humidity 67%
Rainfall 0.00 in
Snow Depth Not available.
UV 0 out of 12
Pollen .40 out of 12
Air Quality Not available.
Flu Activity Not available.
METAR KFNT 030853Z AUTO 18005KT 10SM OVC065 M04/M10 A3025

More Conditions Fewer Conditions

10-Day Weather Forecast

Almanac

Astronomy

Mar. 03, 2015 Rise Set
Actual Time
Civil Twilight
Nautical Twilight
Astronomical Twilight
Moon
Length of Visible Light
Length of Day
Tomorrow will be .
, % of the Moon is Illuminated

Today's Extremes

State Highs State Lows

Community

WunderPhotos

Upload Photos

1,802,075 photos uploaded!

WunderBlogs® & News

Nearby

Air Quality

  Air Quality AQ Index Pollutant
Not available.

Snow Depth

Station Depth Elevation

Earthquake Activity

City Distance Mag. Time & Date
Minimum magnitude displayed is 2.5.

Coastal Water Temperatures

Place Temperature

Nearby Weather Stations

Winter Weather Advisory
Statement as of 9:39 PM EST on March 02, 2015

... Winter Weather Advisory remains in effect from 8 am to 7 PM
EST Tuesday...

Hazardous weather...

* precipitation will begin as snow between 8 and 10 am... mixing
   with sleet. 2 to 4 inches of snow and sleet is expected.

* Periods of freezing rain are possible between around 1 PM and
   7 PM. Up to a tenth of an inch of ice is expected.

* Heaviest precipitation is expected between 10 am and 4 PM.

Impacts...

* the combination of snow and ice will cause untreated roads to
   become hazardous.

* Reduced visibility in moderate to briefly heavy snow.

* Conditions will be particularly hazardous on secondary roads
   as liquid precipitation will freeze easier.

Precautionary/preparedness actions...

* a Winter Weather Advisory means that periods of snow...
   sleet... and freezing rain will cause travel difficulties. Be
   prepared for slippery roads and limited visibilities... and
   use caution while driving.

* Prepare... plan... and stay informed. Visit
   http://go.USA.Gov/rr8